Time;durP1;ratioP1;P1;durP2;ratioP2;P2;SDS_P1;SDS_P2;PMS_P1;PMS_P2;Temp;Humidity;BMP_temperature;BMP_pressure;BME280_temperature;BME280_humidity;BME280_pressure;Samples;Min_cycle;Max_cycle;Signal;HPM_P1;HPM_P2
2021/07/22 00:02:07;;;;;;;19.30;13.90;;;20.00;91.60;;;;;;5075761;28;20043;-52
2021/07/22 00:04:32;;;;;;;19.45;15.23;;;20.00;91.70;;;;;;5076260;28;20032;-54
2021/07/22 00:06:58;;;;;;;18.33;15.23;;;20.00;91.70;;;;;;5075355;28;20046;-56
2021/07/22 00:09:23;;;;;;;18.98;15.18;;;20.00;91.70;;;;;;5075069;28;20089;-54
2021/07/22 00:11:49;;;;;;;18.48;14.77;;;20.00;91.80;;;;;;5076197;28;20126;-50
2021/07/22 00:14:15;;;;;;;18.13;14.38;;;20.00;91.90;;;;;;5075047;28;20025;-52
2021/07/22 00:16:41;;;;;;;18.17;14.00;;;20.00;92.00;;;;;;5075802;28;20511;-51
2021/07/22 00:19:06;;;;;;;17.50;13.45;;;19.90;92.10;;;;;;5075895;28;20032;-53
2021/07/22 00:21:32;;;;;;;18.88;14.65;;;20.00;92.20;;;;;;5074756;28;20035;-51
2021/07/22 00:23:59;;;;;;;17.40;14.30;;;19.90;92.20;;;;;;5075149;28;20037;-52
2021/07/22 00:26:24;;;;;;;18.00;14.13;;;20.00;92.30;;;;;;5074833;28;20044;-55
2021/07/22 00:28:51;;;;;;;19.17;14.45;;;19.90;92.20;;;;;;5074784;28;20033;-53
2021/07/22 00:31:16;;;;;;;18.05;14.93;;;19.90;92.10;;;;;;5075018;28;20542;-55
2021/07/22 00:33:42;;;;;;;18.60;13.95;;;19.90;92.00;;;;;;5075143;28;20143;-54
2021/07/22 00:36:12;;;;;;;20.77;14.75;;;19.90;92.10;;;;;;5074163;28;20484;-55
2021/07/22 00:38:38;;;;;;;17.33;14.30;;;19.90;92.20;;;;;;5072801;28;20043;-54
2021/07/22 00:41:05;;;;;;;20.48;14.63;;;19.80;92.20;;;;;;5074320;28;20044;-53
2021/07/22 00:43:30;;;;;;;18.05;14.38;;;19.70;92.10;;;;;;5074005;28;20083;-52
2021/07/22 00:45:56;;;;;;;18.45;13.77;;;19.70;92.10;;;;;;5073931;28;20044;-53
2021/07/22 00:48:22;;;;;;;16.70;13.60;;;19.70;92.00;;;;;;5073060;28;20032;-50
2021/07/22 00:50:47;;;;;;;20.25;12.90;;;19.70;92.00;;;;;;5074723;28;20062;-52
2021/07/22 00:53:13;;;;;;;17.73;13.95;;;19.70;92.00;;;;;;5074063;28;20040;-53
2021/07/22 00:55:38;;;;;;;18.50;14.25;;;19.70;92.10;;;;;;5074555;28;20522;-61
2021/07/22 00:58:04;;;;;;;18.08;13.60;;;19.70;92.10;;;;;;5074713;28;20033;-55
2021/07/22 01:00:30;;;;;;;17.17;12.93;;;19.70;92.10;;;;;;5075401;28;20093;-57
2021/07/22 01:02:55;;;;;;;21.38;13.68;;;19.80;92.20;;;;;;5076300;28;20116;-56
2021/07/22 01:05:21;;;;;;;20.85;14.80;;;19.70;92.00;;;;;;5075466;28;20391;-55
2021/07/22 01:07:46;;;;;;;15.48;12.75;;;19.70;92.20;;;;;;5074690;28;20029;-52
2021/07/22 01:10:12;;;;;;;16.63;13.45;;;19.70;92.30;;;;;;5074336;28;20040;-54
2021/07/22 01:12:38;;;;;;;28.30;22.70;;;19.70;92.30;;;;;;5073396;28;20029;-55
2021/07/22 01:15:04;;;;;;;26.23;19.38;;;19.70;92.40;;;;;;5073021;28;20118;-51
2021/07/22 01:17:47;;;;;;;23.08;19.08;;;19.70;92.50;;;;;;5074495;28;20043;-52
2021/07/22 01:20:16;;;;;;;20.48;15.65;;;19.60;92.60;;;;;;5073757;28;20029;-54
2021/07/22 01:22:42;;;;;;;20.33;15.00;;;19.60;92.60;;;;;;5054060;28;20659;-54
2021/07/22 01:25:09;;;;;;;17.33;13.82;;;19.60;92.70;;;;;;5053779;28;20060;-61
2021/07/22 01:27:35;;;;;;;16.83;13.98;;;19.60;92.80;;;;;;5054084;28;20473;-51
2021/07/22 01:30:00;;;;;;;21.58;15.00;;;19.60;92.80;;;;;;5053361;28;20033;-53
2021/07/22 01:32:26;;;;;;;19.58;14.50;;;19.60;92.90;;;;;;5054389;28;20029;-54
2021/07/22 01:34:52;;;;;;;20.40;14.55;;;19.50;92.70;;;;;;5053958;28;20033;-51
2021/07/22 01:37:17;;;;;;;16.65;14.05;;;19.50;92.60;;;;;;5053601;28;20136;-49
2021/07/22 01:39:43;;;;;;;21.50;14.52;;;19.50;92.60;;;;;;5054103;28;20488;-52
2021/07/22 01:42:09;;;;;;;18.10;14.63;;;19.50;92.60;;;;;;5053858;28;20037;-55
2021/07/22 01:44:34;;;;;;;19.35;14.20;;;19.40;92.40;;;;;;5053716;28;20028;-56
2021/07/22 01:47:03;;;;;;;17.95;14.57;;;19.40;92.50;;;;;;5053520;28;20048;-50
2021/07/22 01:49:28;;;;;;;15.88;13.95;;;19.40;92.60;;;;;;5053932;28;20028;-51
2021/07/22 01:51:54;;;;;;;16.95;13.95;;;19.40;92.60;;;;;;5053310;28;20024;-51
2021/07/22 01:54:19;;;;;;;17.33;14.02;;;19.50;92.70;;;;;;5071217;28;20116;-50
2021/07/22 01:56:45;;;;;;;20.00;14.45;;;19.50;92.70;;;;;;5073082;28;20081;-51
2021/07/22 01:59:10;;;;;;;17.30;14.25;;;19.60;92.70;;;;;;5073667;28;20107;-54
2021/07/22 02:01:36;;;;;;;19.73;13.57;;;19.50;92.60;;;;;;5072857;28;20048;-53
2021/07/22 02:04:01;;;;;;;16.65;13.88;;;19.40;92.70;;;;;;5073032;28;20487;-50
2021/07/22 02:06:27;;;;;;;15.77;13.18;;;19.40;92.80;;;;;;5072950;28;20044;-53
2021/07/22 02:08:52;;;;;;;15.48;13.18;;;19.40;92.80;;;;;;5073426;28;20032;-49
2021/07/22 02:11:18;;;;;;;17.77;13.55;;;19.50;92.80;;;;;;5073172;28;20027;-53
2021/07/22 02:13:43;;;;;;;18.92;14.68;;;19.50;92.90;;;;;;5073621;28;20036;-53
2021/07/22 02:16:09;;;;;;;15.02;13.32;;;19.50;92.90;;;;;;5073160;28;20063;-56
2021/07/22 02:18:35;;;;;;;18.15;13.88;;;19.50;93.10;;;;;;5073206;28;20493;-52
2021/07/22 02:21:05;;;;;;;15.55;13.25;;;19.40;93.20;;;;;;5073502;28;20504;-50
2021/07/22 02:23:31;;;;;;;16.55;12.98;;;19.50;93.40;;;;;;5073664;28;20032;-54
2021/07/22 02:25:56;;;;;;;16.85;13.70;;;19.50;93.40;;;;;;5075405;28;20120;-54
2021/07/22 02:28:22;;;;;;;18.80;13.57;;;19.50;93.40;;;;;;5073438;28;20488;-53
2021/07/22 02:30:47;;;;;;;20.17;13.57;;;19.40;93.20;;;;;;5073201;28;20037;-56
2021/07/22 02:33:13;;;;;;;17.73;13.05;;;19.40;93.30;;;;;;5072458;28;20040;-53
2021/07/22 02:35:39;;;;;;;15.60;12.70;;;19.40;93.40;;;;;;5073006;28;20043;-52
2021/07/22 02:38:05;;;;;;;18.92;13.35;;;19.30;93.50;;;;;;5073140;28;20392;-53
2021/07/22 02:40:30;;;;;;;18.65;13.18;;;19.30;93.40;;;;;;5073196;28;20021;-53
2021/07/22 02:42:56;;;;;;;15.18;12.57;;;19.20;93.40;;;;;;5073381;28;20423;-57
2021/07/22 02:45:21;;;;;;;16.48;12.65;;;19.20;93.50;;;;;;5071899;28;20028;-51
2021/07/22 02:47:47;;;;;;;15.27;13.32;;;19.30;93.70;;;;;;5071684;28;20047;-52
2021/07/22 02:50:12;;;;;;;17.95;14.50;;;19.30;93.60;;;;;;5071023;28;20032;-54
2021/07/22 02:52:38;;;;;;;17.80;13.40;;;19.20;93.50;;;;;;5072394;28;20034;-54
2021/07/22 02:55:04;;;;;;;20.45;15.35;;;19.20;93.50;;;;;;5072945;28;20035;-52
2021/07/22 02:57:30;;;;;;;19.25;14.32;;;19.20;93.50;;;;;;5072597;28;20652;-51
2021/07/22 02:59:56;;;;;;;17.35;14.18;;;19.20;93.50;;;;;;5072578;28;20039;-52
2021/07/22 03:02:22;;;;;;;18.40;14.75;;;19.20;93.70;;;;;;5073192;28;20024;-51
2021/07/22 03:04:47;;;;;;;18.35;16.30;;;19.20;93.80;;;;;;5072711;28;20048;-54
2021/07/22 03:07:13;;;;;;;18.33;15.02;;;19.20;93.80;;;;;;5072414;28;20063;-57
2021/07/22 03:09:38;;;;;;;19.20;14.20;;;19.20;93.70;;;;;;5072740;28;20396;-53
2021/07/22 03:12:04;;;;;;;20.55;14.55;;;19.20;93.70;;;;;;5071593;28;20523;-50
2021/07/22 03:14:30;;;;;;;19.92;15.80;;;19.20;93.60;;;;;;5072335;28;20480;-50
2021/07/22 03:16:55;;;;;;;16.55;14.85;;;19.20;93.60;;;;;;5071890;28;20028;-52
2021/07/22 03:19:22;;;;;;;20.35;15.85;;;19.20;93.70;;;;;;5072742;28;20507;-52
2021/07/22 03:21:47;;;;;;;22.17;15.65;;;19.20;93.70;;;;;;5072771;28;20039;-54
2021/07/22 03:24:13;;;;;;;19.38;15.35;;;19.10;93.70;;;;;;5072284;28;20028;-52
2021/07/22 03:26:38;;;;;;;19.77;15.00;;;19.20;93.80;;;;;;5071903;28;20028;-50
2021/07/22 03:29:04;;;;;;;18.67;15.02;;;19.10;93.90;;;;;;5071315;28;20037;-49
2021/07/22 03:31:30;;;;;;;17.25;13.40;;;19.10;94.00;;;;;;5072338;28;20039;-50
2021/07/22 03:33:55;;;;;;;17.63;13.50;;;19.10;94.10;;;;;;5072241;28;20033;-56
2021/07/22 03:36:21;;;;;;;15.23;13.63;;;19.10;94.30;;;;;;5070734;28;20484;-56
2021/07/22 03:38:47;;;;;;;18.80;14.00;;;19.20;94.40;;;;;;5072858;28;20032;-50
2021/07/22 03:41:14;;;;;;;17.42;13.07;;;19.10;94.50;;;;;;5072617;28;20484;-51
2021/07/22 03:43:40;;;;;;;16.55;13.30;;;19.20;94.50;;;;;;5073260;28;20040;-52
2021/07/22 03:46:06;;;;;;;18.70;13.18;;;19.20;94.40;;;;;;5074651;28;20037;-56
2021/07/22 03:48:31;;;;;;;18.23;14.18;;;19.30;94.40;;;;;;5072772;28;20431;-58
2021/07/22 03:50:57;;;;;;;14.93;12.60;;;19.30;94.40;;;;;;5072716;28;20044;-55
2021/07/22 03:53:22;;;;;;;16.77;12.07;;;19.30;94.30;;;;;;5072129;28;20067;-55
2021/07/22 03:55:48;;;;;;;20.48;13.65;;;19.30;94.30;;;;;;5071485;28;20033;-57
2021/07/22 03:58:14;;;;;;;20.88;14.77;;;19.30;94.30;;;;;;5071474;28;20029;-49
2021/07/22 04:00:39;;;;;;;15.35;13.57;;;19.40;94.40;;;;;;5071432;28;20090;-51
2021/07/22 04:03:05;;;;;;;18.35;14.18;;;19.40;94.30;;;;;;5071930;28;20020;-50
2021/07/22 04:05:30;;;;;;;23.70;14.82;;;19.30;94.40;;;;;;5072176;28;20021;-54
2021/07/22 04:07:57;;;;;;;17.63;14.30;;;19.30;94.20;;;;;;5072432;28;20111;-53
2021/07/22 04:10:24;;;;;;;19.83;14.52;;;19.20;94.30;;;;;;5071670;28;20032;-52
2021/07/22 04:12:59;;;;;;;19.60;14.73;;;19.20;94.60;;;;;;5072344;28;20068;-51
2021/07/22 04:15:25;;;;;;;20.65;14.55;;;19.20;94.70;;;;;;5072537;28;20029;-54
2021/07/22 04:17:52;;;;;;;19.40;14.55;;;19.20;94.70;;;;;;5071716;28;20077;-52
2021/07/22 04:20:18;;;;;;;20.45;15.88;;;19.20;94.70;;;;;;5072409;28;20045;-50
2021/07/22 04:22:44;;;;;;;24.25;14.70;;;19.20;94.70;;;;;;5071668;28;20453;-50
2021/07/22 04:25:11;;;;;;;20.60;14.32;;;19.20;94.70;;;;;;5073453;28;20060;-52
2021/07/22 04:27:36;;;;;;;18.48;14.05;;;19.20;94.60;;;;;;5075554;28;20062;-55
2021/07/22 04:30:03;;;;;;;18.60;14.52;;;19.30;94.60;;;;;;5076005;28;20033;-51
2021/07/22 04:32:28;;;;;;;17.20;13.75;;;19.30;94.60;;;;;;5075609;28;20095;-51
2021/07/22 04:34:54;;;;;;;16.15;13.35;;;19.40;94.60;;;;;;5075351;28;20059;-54
2021/07/22 04:37:19;;;;;;;18.50;13.27;;;19.40;94.60;;;;;;5075029;28;20056;-55
2021/07/22 04:39:45;;;;;;;16.65;13.57;;;19.40;94.50;;;;;;5075437;28;20059;-54
2021/07/22 04:42:10;;;;;;;17.00;14.05;;;19.40;94.60;;;;;;5075689;28;20477;-53
2021/07/22 04:44:36;;;;;;;17.00;14.90;;;19.40;94.60;;;;;;5075051;28;20577;-50
2021/07/22 04:47:02;;;;;;;18.85;14.60;;;19.40;94.40;;;;;;5073489;28;20075;-52
2021/07/22 04:49:27;;;;;;;16.48;13.55;;;19.40;94.20;;;;;;5075164;28;20064;-53
2021/07/22 04:51:53;;;;;;;18.20;13.65;;;19.40;94.10;;;;;;5075678;28;20020;-53
2021/07/22 04:54:18;;;;;;;17.33;14.32;;;19.40;94.10;;;;;;5075358;28;20503;-52
2021/07/22 04:56:44;;;;;;;17.52;14.45;;;19.40;94.20;;;;;;5074897;28;20488;-54
2021/07/22 04:59:10;;;;;;;18.35;13.57;;;19.50;94.20;;;;;;5074430;28;20420;-52
2021/07/22 05:01:36;;;;;;;19.45;14.40;;;19.40;94.10;;;;;;5075502;28;20387;-55
2021/07/22 05:04:02;;;;;;;17.75;12.98;;;19.50;94.00;;;;;;5074320;28;20040;-59
2021/07/22 05:06:27;;;;;;;21.95;13.95;;;19.50;93.90;;;;;;5073436;28;20044;-54
2021/07/22 05:08:53;;;;;;;16.48;12.75;;;19.50;94.00;;;;;;5076346;28;20041;-51
2021/07/22 05:11:18;;;;;;;21.73;14.68;;;19.50;94.10;;;;;;5075576;28;20030;-50
2021/07/22 05:13:44;;;;;;;18.50;14.35;;;19.50;94.10;;;;;;5074909;28;20495;-53
2021/07/22 05:16:10;;;;;;;16.52;13.95;;;19.50;94.00;;;;;;5074534;28;20035;-57
2021/07/22 05:18:35;;;;;;;18.48;14.00;;;19.60;94.00;;;;;;5074272;28;20056;-56
2021/07/22 05:21:05;;;;;;;17.35;14.02;;;19.60;93.70;;;;;;5074417;28;20040;-52
2021/07/22 05:23:31;;;;;;;17.95;13.60;;;19.60;93.30;;;;;;5074533;28;20032;-52
2021/07/22 05:25:57;;;;;;;18.63;13.00;;;19.60;93.40;;;;;;5072641;28;20032;-52
2021/07/22 05:28:23;;;;;;;21.70;15.18;;;19.60;93.40;;;;;;5074361;28;20511;-52
2021/07/22 05:30:48;;;;;;;17.27;12.98;;;19.60;93.40;;;;;;5074719;28;20058;-55
2021/07/22 05:33:14;;;;;;;19.50;14.30;;;19.60;93.50;;;;;;5073841;28;20036;-53
2021/07/22 05:35:39;;;;;;;21.60;14.35;;;19.60;93.50;;;;;;5074320;28;20029;-52
2021/07/22 05:38:05;;;;;;;20.15;13.50;;;19.70;93.50;;;;;;5074399;28;20107;-54
2021/07/22 05:40:31;;;;;;;18.33;14.32;;;19.80;93.40;;;;;;5074396;28;20064;-54
2021/07/22 05:42:57;;;;;;;24.77;14.95;;;19.70;93.50;;;;;;5073972;28;20380;-52
2021/07/22 05:45:23;;;;;;;23.13;15.63;;;19.70;93.50;;;;;;5074040;28;20029;-58
2021/07/22 05:47:48;;;;;;;24.33;17.75;;;19.70;93.40;;;;;;5073497;28;20536;-58
2021/07/22 05:50:14;;;;;;;19.73;14.20;;;19.70;93.50;;;;;;5072976;28;20124;-53
2021/07/22 05:52:39;;;;;;;18.25;13.27;;;19.70;93.30;;;;;;5073908;28;20537;-53
2021/07/22 05:55:05;;;;;;;20.00;14.68;;;19.80;93.30;;;;;;5072233;28;20029;-55
2021/07/22 05:57:32;;;;;;;24.08;14.23;;;19.90;93.10;;;;;;5073425;28;20039;-54
2021/07/22 05:59:58;;;;;;;25.65;16.50;;;19.90;93.10;;;;;;5074141;28;20060;-53
2021/07/22 06:02:23;;;;;;;28.70;14.98;;;19.90;93.00;;;;;;5073162;28;20040;-49
2021/07/22 06:04:49;;;;;;;20.52;15.02;;;19.80;93.00;;;;;;5074450;28;20039;-55
2021/07/22 06:07:15;;;;;;;22.00;14.27;;;19.80;92.80;;;;;;5073914;28;20433;-56
2021/07/22 06:09:40;;;;;;;20.80;14.30;;;19.80;92.70;;;;;;5072326;28;20048;-55
2021/07/22 06:12:06;;;;;;;20.67;13.93;;;19.90;92.70;;;;;;5055697;28;20037;-53
2021/07/22 06:14:32;;;;;;;20.10;13.65;;;19.80;92.80;;;;;;5073473;28;20037;-51
2021/07/22 06:16:57;;;;;;;18.27;14.25;;;19.80;92.80;;;;;;5073657;28;20056;-55
2021/07/22 06:19:23;;;;;;;23.60;15.63;;;19.80;92.90;;;;;;5073892;28;20047;-52
2021/07/22 06:21:48;;;;;;;25.58;18.88;;;19.80;93.00;;;;;;5072927;28;20044;-51
2021/07/22 06:24:14;;;;;;;24.25;14.27;;;19.90;93.00;;;;;;5072463;28;20032;-53
2021/07/22 06:26:39;;;;;;;25.85;14.73;;;19.90;92.90;;;;;;5071608;28;20476;-54
2021/07/22 06:29:05;;;;;;;25.27;15.85;;;19.90;93.10;;;;;;5073070;28;20029;-55
2021/07/22 06:31:31;;;;;;;22.50;14.73;;;19.90;93.20;;;;;;5074115;28;20035;-56
2021/07/22 06:33:56;;;;;;;18.38;13.43;;;19.90;93.10;;;;;;5073201;28;20041;-55
2021/07/22 06:36:22;;;;;;;16.58;12.63;;;19.90;93.10;;;;;;5073416;28;20081;-53
2021/07/22 06:38:48;;;;;;;18.38;13.25;;;19.90;93.10;;;;;;5074213;28;20028;-55
2021/07/22 06:41:13;;;;;;;18.20;13.07;;;19.90;93.10;;;;;;5073536;28;20028;-52
2021/07/22 06:43:39;;;;;;;16.95;12.65;;;19.90;92.90;;;;;;5073161;28;20037;-55
2021/07/22 06:46:04;;;;;;;15.25;13.52;;;19.90;92.50;;;;;;5072279;28;20052;-50
2021/07/22 06:48:30;;;;;;;15.30;12.50;;;19.90;92.50;;;;;;5073243;28;20118;-58
2021/07/22 06:50:56;;;;;;;17.98;12.73;;;19.90;92.40;;;;;;5072635;28;20500;-55
2021/07/22 06:53:21;;;;;;;21.27;13.85;;;19.90;92.60;;;;;;5055355;28;20059;-52
2021/07/22 06:55:48;;;;;;;21.10;13.75;;;19.90;92.50;;;;;;5072851;28;20365;-55
2021/07/22 06:58:14;;;;;;;19.10;13.50;;;19.90;92.70;;;;;;5072937;28;20024;-53
2021/07/22 07:00:39;;;;;;;17.38;13.30;;;20.00;92.70;;;;;;5073115;28;20035;-53
2021/07/22 07:03:11;;;;;;;18.38;13.77;;;20.00;92.60;;;;;;5073407;28;20046;-52
2021/07/22 07:05:36;;;;;;;17.48;13.48;;;20.20;92.50;;;;;;5073055;28;20033;-55
2021/07/22 07:08:02;;;;;;;15.65;13.25;;;20.20;92.50;;;;;;5072215;28;20542;-58
2021/07/22 07:10:28;;;;;;;20.23;15.40;;;20.40;92.30;;;;;;5080198;28;20048;-53
2021/07/22 07:12:54;;;;;;;17.38;13.50;;;20.40;92.40;;;;;;5081867;28;20024;-56
2021/07/22 07:15:20;;;;;;;17.40;12.98;;;20.50;92.10;;;;;;5081068;28;20029;-52
2021/07/22 07:17:46;;;;;;;18.55;12.93;;;20.60;92.10;;;;;;5082390;28;20025;-54
2021/07/22 07:20:12;;;;;;;20.30;13.35;;;20.60;92.10;;;;;;5078122;28;20686;-55
2021/07/22 07:22:38;;;;;;;15.32;12.68;;;20.60;92.00;;;;;;5081598;28;20514;-54
2021/07/22 07:25:04;;;;;;;16.25;12.65;;;20.70;92.00;;;;;;5079613;28;20106;-52
2021/07/22 07:27:30;;;;;;;16.33;11.23;;;20.80;91.90;;;;;;5079730;28;20032;-55
2021/07/22 07:29:55;;;;;;;16.83;12.95;;;20.90;91.70;;;;;;5085972;28;20036;-59
2021/07/22 07:32:21;;;;;;;19.77;13.50;;;21.00;91.60;;;;;;5075209;28;20076;-59
2021/07/22 07:34:46;;;;;;;16.60;12.48;;;21.00;91.30;;;;;;5079531;28;20070;-52
2021/07/22 07:37:12;;;;;;;15.25;12.57;;;21.20;91.20;;;;;;5078697;28;20080;-55
2021/07/22 07:39:38;;;;;;;14.00;11.88;;;21.20;91.10;;;;;;5078249;28;20075;-52
2021/07/22 07:42:03;;;;;;;13.98;12.45;;;21.40;90.80;;;;;;5081441;28;20504;-53
2021/07/22 07:44:29;;;;;;;15.73;12.18;;;21.40;90.50;;;;;;5080879;28;20113;-52
2021/07/22 07:46:55;;;;;;;18.10;12.45;;;21.50;90.40;;;;;;5082354;28;20032;-52
2021/07/22 07:49:20;;;;;;;21.65;13.00;;;21.60;90.10;;;;;;5079117;28;20036;-53
2021/07/22 07:51:46;;;;;;;16.42;13.13;;;21.60;90.20;;;;;;5081252;28;20400;-55
2021/07/22 07:54:12;;;;;;;14.88;12.38;;;21.70;90.30;;;;;;5082843;28;20396;-59
2021/07/22 07:56:38;;;;;;;13.85;11.85;;;21.70;90.30;;;;;;5079348;28;20021;-52
2021/07/22 07:59:04;;;;;;;23.92;21.05;;;21.80;90.20;;;;;;5088154;28;20021;-59
2021/07/22 08:01:30;;;;;;;17.83;13.80;;;21.90;90.00;;;;;;5083029;28;20020;-57
2021/07/22 08:03:57;;;;;;;20.00;13.40;;;22.00;89.90;;;;;;5085545;28;20020;-54
2021/07/22 08:06:23;;;;;;;18.05;13.10;;;21.90;90.00;;;;;;5084691;28;20032;-53
2021/07/22 08:08:48;;;;;;;18.50;12.90;;;21.80;90.30;;;;;;5083503;28;20040;-54
2021/07/22 08:11:14;;;;;;;15.20;12.60;;;21.80;90.20;;;;;;5086679;28;20081;-57
2021/07/22 08:13:39;;;;;;;16.88;12.65;;;21.80;90.10;;;;;;5078932;28;20029;-55
2021/07/22 08:16:05;;;;;;;20.65;13.13;;;21.80;90.10;;;;;;5074967;28;20044;-51
2021/07/22 08:18:31;;;;;;;18.30;12.88;;;21.80;90.00;;;;;;5076046;28;20032;-53
2021/07/22 08:20:57;;;;;;;18.98;13.13;;;21.70;90.20;;;;;;5076153;28;20388;-52
2021/07/22 08:23:23;;;;;;;15.20;12.82;;;21.60;90.10;;;;;;5079790;28;20552;-52
2021/07/22 08:25:48;;;;;;;15.68;11.98;;;21.70;90.00;;;;;;5076106;28;20120;-56
2021/07/22 08:28:14;;;;;;;16.70;12.68;;;21.80;89.30;;;;;;5065480;28;20028;-53
2021/07/22 08:30:40;;;;;;;16.80;13.25;;;21.90;87.90;;;;;;5060810;28;20101;-50
2021/07/22 08:33:06;;;;;;;15.73;12.05;;;21.90;86.50;;;;;;5074921;28;20032;-52
2021/07/22 08:35:31;;;;;;;19.13;13.23;;;22.00;86.50;;;;;;5074435;28;20039;-52
2021/07/22 08:37:58;;;;;;;16.98;12.52;;;22.10;85.30;;;;;;5075848;28;20078;-49
2021/07/22 08:40:25;;;;;;;18.35;12.65;;;22.30;84.90;;;;;;5077241;28;20028;-53
2021/07/22 08:42:54;;;;;;;17.83;11.75;;;22.50;85.00;;;;;;5075732;28;20048;-52
2021/07/22 08:45:20;;;;;;;15.13;12.20;;;22.60;83.10;;;;;;5075004;28;20036;-49
2021/07/22 08:47:46;;;;;;;16.50;12.13;;;22.60;83.00;;;;;;5073457;28;20044;-48
2021/07/22 08:50:14;;;;;;;17.95;11.80;;;22.50;83.30;;;;;;5086938;28;20051;-62
2021/07/22 08:52:41;;;;;;;16.00;12.77;;;22.70;83.30;;;;;;5091400;28;20021;-49
2021/07/22 08:55:07;;;;;;;16.92;12.70;;;22.70;83.00;;;;;;5075329;28;20089;-56
2021/07/22 08:57:34;;;;;;;21.13;13.40;;;22.80;81.90;;;;;;5074567;28;20029;-57
2021/07/22 09:00:02;;;;;;;17.92;12.93;;;22.90;82.30;;;;;;5074940;28;20127;-54
2021/07/22 09:02:30;;;;;;;15.65;13.15;;;22.90;81.30;;;;;;5074580;28;20502;-54
2021/07/22 09:04:57;;;;;;;15.32;11.52;;;22.90;80.90;;;;;;5074974;28;20041;-54
2021/07/22 09:07:23;;;;;;;17.15;12.32;;;23.00;80.00;;;;;;5074121;28;20075;-53
2021/07/22 09:10:07;;;;;;;17.13;11.25;;;23.10;80.50;;;;;;5072908;28;20427;-55
2021/07/22 09:12:51;;;;;;;13.60;11.18;;;23.20;80.60;;;;;;5074342;28;20032;-55
2021/07/22 09:15:32;;;;;;;13.77;11.73;;;23.10;78.80;;;;;;5074401;28;20045;-52
2021/07/22 09:17:58;;;;;;;14.07;11.48;;;23.00;78.90;;;;;;5074442;28;20033;-55
2021/07/22 09:20:31;;;;;;;13.02;10.70;;;22.90;78.00;;;;;;5074650;28;20055;-55
2021/07/22 09:23:04;;;;;;;18.73;11.43;;;23.00;78.70;;;;;;5074338;28;20036;-52
2021/07/22 09:25:43;;;;;;;14.65;12.05;;;23.00;77.70;;;;;;5074347;28;20437;-53
2021/07/22 09:28:16;;;;;;;19.23;12.98;;;23.20;77.10;;;;;;5076644;28;20028;-52
2021/07/22 09:30:59;;;;;;;19.10;13.45;;;23.20;77.20;;;;;;5082363;28;20039;-49
2021/07/22 09:33:38;;;;;;;17.80;13.85;;;23.30;76.50;;;;;;5085429;28;20077;-51
2021/07/22 09:36:24;;;;;;;19.15;14.05;;;23.30;76.00;;;;;;5078606;28;20025;-49
2021/07/22 09:38:49;;;;;;;15.90;13.13;;;23.40;75.80;;;;;;5074078;28;20127;-50
2021/07/22 09:41:23;;;;;;;17.08;13.48;;;23.50;75.60;;;;;;5074343;28;20075;-50
2021/07/22 09:43:49;;;;;;;;;;;23.60;73.90;;;;;;5074935;28;20064;-50
2021/07/22 09:46:15;;;;;;;16.42;13.27;;;23.80;74.20;;;;;;5074250;28;19974;-54
2021/07/22 09:49:10;;;;;;;19.23;15.25;;;23.70;72.60;;;;;;5073293;28;20104;-50
2021/07/22 09:51:37;;;;;;;21.73;15.35;;;23.70;71.10;;;;;;5074738;28;20377;-52
2021/07/22 09:54:10;;;;;;;17.85;13.55;;;23.80;71.30;;;;;;5074333;28;20046;-51
2021/07/22 09:56:41;;;;;;;45.08;17.88;;;23.70;72.20;;;;;;5073749;28;20021;-53
2021/07/22 09:59:09;;;;;;;26.42;15.27;;;23.60;71.50;;;;;;5073946;28;20031;-55
2021/07/22 10:02:03;;;;;;;19.50;14.30;;;23.40;72.30;;;;;;5074012;28;20032;-54
2021/07/22 10:04:30;;;;;;;;;;;23.20;70.80;;;;;;5073049;28;20151;-52
2021/07/22 10:07:01;;;;;;;16.67;13.90;;;23.20;69.50;;;;;;5074150;28;19909;-52
2021/07/22 10:09:32;;;;;;;17.52;13.52;;;23.30;70.10;;;;;;5073470;28;20478;-57
2021/07/22 10:11:58;;;;;;;17.08;13.50;;;23.40;70.80;;;;;;5073634;28;20036;-50
2021/07/22 10:14:24;;;;;;;19.45;14.23;;;23.40;71.40;;;;;;5073743;28;20032;-50
2021/07/22 10:16:51;;;;;;;15.38;13.50;;;23.50;71.00;;;;;;5073741;28;20029;-51
2021/07/22 10:19:19;;;;;;;15.70;13.40;;;23.50;69.20;;;;;;5074095;28;20084;-49
2021/07/22 10:21:45;;;;;;;17.90;14.27;;;23.50;70.00;;;;;;5073749;28;20488;-57
2021/07/22 10:24:11;;;;;;;15.15;13.55;;;23.50;69.00;;;;;;5074474;28;20039;-53
2021/07/22 10:26:40;;;;;;;22.00;14.35;;;23.50;69.00;;;;;;5073309;28;20029;-49
2021/07/22 10:29:06;;;;;;;17.02;14.30;;;23.50;69.10;;;;;;5073496;28;20029;-56
2021/07/22 10:31:40;;;;;;;16.20;14.27;;;23.50;67.60;;;;;;5073749;28;20032;-51
2021/07/22 10:34:09;;;;;;;16.50;13.30;;;23.50;67.10;;;;;;5073624;28;20025;-55
2021/07/22 10:36:37;;;;;;;19.15;15.50;;;23.60;67.40;;;;;;5053717;28;20714;-51
2021/07/22 10:39:03;;;;;;;17.17;15.15;;;23.80;67.20;;;;;;5053607;28;20424;-54
2021/07/22 10:41:35;;;;;;;16.60;14.15;;;23.80;66.70;;;;;;5062313;28;20033;-54
2021/07/22 10:44:01;;;;;;;16.60;14.07;;;23.90;66.90;;;;;;5073832;28;20068;-52
2021/07/22 10:46:50;;;;;;;16.90;13.65;;;24.00;66.60;;;;;;5072749;28;20052;-53
2021/07/22 10:49:15;;;;;;;16.77;13.52;;;24.20;66.80;;;;;;5073512;28;20044;-57
2021/07/22 10:51:42;;;;;;;14.27;12.60;;;24.20;66.10;;;;;;5072758;28;20419;-53
2021/07/22 10:54:08;;;;;;;14.65;13.15;;;24.00;66.40;;;;;;5073078;28;20037;-54
2021/07/22 10:56:42;;;;;;;14.93;13.30;;;23.80;67.00;;;;;;5072947;28;20055;-53
2021/07/22 10:59:07;;;;;;;14.75;12.82;;;23.90;67.30;;;;;;5072872;28;20510;-54
2021/07/22 11:01:42;;;;;;;15.95;13.77;;;24.00;65.90;;;;;;5073681;28;20036;-50
2021/07/22 11:04:36;;;;;;;16.13;13.52;;;24.00;66.30;;;;;;5073892;28;20028;-54
2021/07/22 11:07:04;;;;;;;16.15;14.43;;;24.10;66.60;;;;;;5072726;28;20427;-57
2021/07/22 11:09:56;;;;;;;17.23;15.02;;;24.10;66.50;;;;;;5072577;28;20090;-54
2021/07/22 11:12:47;;;;;;;17.55;14.43;;;24.00;66.10;;;;;;5070035;28;20052;-49
2021/07/22 11:15:35;;;;;;;17.58;14.48;;;23.90;66.40;;;;;;5072451;28;20020;-54
2021/07/22 11:18:21;;;;;;;15.80;14.10;;;24.10;65.30;;;;;;5072632;28;20029;-52
2021/07/22 11:20:47;;;;;;;16.00;13.70;;;24.30;65.50;;;;;;5066265;28;20033;-54
2021/07/22 11:23:15;;;;;;;20.10;15.63;;;24.40;66.00;;;;;;5076414;28;20036;-53
2021/07/22 11:25:45;;;;;;;18.88;14.82;;;24.60;65.50;;;;;;5072261;28;20427;-55
2021/07/22 11:28:12;;;;;;;18.63;14.35;;;24.70;64.60;;;;;;5072694;28;20480;-50
2021/07/22 11:30:37;;;;;;;17.10;14.23;;;24.70;64.70;;;;;;5072329;28;20276;-54
2021/07/22 11:33:16;;;;;;;16.42;14.73;;;24.90;65.20;;;;;;5073374;28;20037;-55
2021/07/22 11:35:57;;;;;;;17.92;13.85;;;25.20;64.70;;;;;;5063460;28;20025;-49
2021/07/22 11:38:23;;;;;;;15.45;13.85;;;25.40;64.10;;;;;;5056873;28;20030;-55
2021/07/22 11:40:49;;;;;;;21.42;14.70;;;25.60;64.70;;;;;;5056492;28;20056;-51
2021/07/22 11:43:32;;;;;;;20.23;15.73;;;25.60;62.20;;;;;;5056635;28;20029;-54
2021/07/22 11:45:57;;;;;;;25.58;21.05;;;25.20;62.50;;;;;;5056806;28;20110;-58
2021/07/22 11:48:23;;;;;;;17.95;14.23;;;25.10;63.30;;;;;;5056156;28;20068;-51
2021/07/22 11:51:06;;;;;;;15.98;14.27;;;25.40;62.00;;;;;;5056999;28;20025;-51
2021/07/22 11:53:32;;;;;;;20.77;15.25;;;25.60;62.70;;;;;;5067323;28;20162;-51
2021/07/22 11:56:07;;;;;;;22.63;15.13;;;25.70;61.70;;;;;;5076200;28;20096;-54
2021/07/22 11:58:32;;;;;;;21.67;17.35;;;25.40;62.60;;;;;;5080443;28;20040;-52
2021/07/22 12:01:01;;;;;;;17.10;14.70;;;25.50;63.00;;;;;;5076611;28;20029;-54
2021/07/22 12:03:27;;;;;;;17.52;13.82;;;25.70;62.10;;;;;;5076776;28;20029;-55
2021/07/22 12:05:52;;;;;;;16.65;13.88;;;25.40;61.30;;;;;;5076208;28;20116;-53
2021/07/22 12:08:20;;;;;;;15.80;13.95;;;25.30;62.70;;;;;;5075418;28;20029;-51
2021/07/22 12:10:49;;;;;;;19.15;13.95;;;25.10;62.40;;;;;;5076470;28;20101;-55
2021/07/22 12:13:15;;;;;;;20.25;14.02;;;25.30;63.20;;;;;;5075783;28;20021;-52
2021/07/22 12:15:44;;;;;;;17.80;14.48;;;25.50;62.60;;;;;;5078375;28;20127;-52
